createdAt,value
2018-05-09T00:01:50.612Z,13.90
2018-05-09T00:04:18.108Z,13.90
2018-05-09T00:06:45.578Z,13.90
2018-05-09T00:09:13.142Z,13.90
2018-05-09T00:11:40.708Z,13.90
2018-05-09T00:14:08.276Z,13.80
2018-05-09T00:16:35.760Z,13.90
2018-05-09T00:19:03.978Z,13.90
2018-05-09T00:21:31.457Z,13.90
2018-05-09T00:23:58.918Z,13.80
2018-05-09T00:26:26.382Z,13.80
2018-05-09T00:28:53.854Z,13.90
2018-05-09T00:31:21.338Z,13.90
2018-05-09T00:33:48.892Z,13.90
2018-05-09T00:36:18.782Z,13.80
2018-05-09T00:38:46.266Z,13.80
2018-05-09T00:41:13.840Z,13.80
2018-05-09T00:43:41.311Z,13.70
2018-05-09T00:46:08.773Z,13.70
2018-05-09T00:48:36.240Z,13.60
2018-05-09T00:51:03.712Z,13.60
2018-05-09T00:53:32.804Z,13.60
2018-05-09T00:56:00.266Z,13.60
2018-05-09T00:58:27.739Z,13.60
2018-05-09T01:00:55.293Z,13.60
2018-05-09T01:03:22.752Z,13.50
2018-05-09T01:05:50.242Z,13.50
2018-05-09T01:08:17.703Z,13.40
2018-05-09T01:10:46.137Z,13.40
2018-05-09T01:13:13.613Z,13.40
2018-05-09T01:15:41.161Z,13.30
2018-05-09T01:18:08.633Z,13.30
2018-05-09T01:20:36.141Z,13.30
2018-05-09T01:23:03.692Z,13.30
2018-05-09T01:25:31.280Z,13.20
2018-05-09T01:27:58.736Z,13.20
2018-05-09T01:30:26.219Z,13.20
2018-05-09T01:32:54.475Z,13.20
2018-05-09T01:35:21.937Z,13.20
2018-05-09T01:37:49.398Z,13.20
2018-05-09T01:40:16.959Z,13.20
2018-05-09T01:42:46.065Z,13.10
2018-05-09T01:45:13.634Z,13.10
2018-05-09T01:47:41.209Z,13.10
2018-05-09T01:50:10.177Z,13.10
2018-05-09T01:52:37.662Z,13.00
2018-05-09T01:55:05.911Z,13.00
2018-05-09T01:57:33.413Z,13.00
2018-05-09T02:00:01.647Z,12.90
2018-05-09T02:02:29.140Z,12.90
2018-05-09T02:04:56.661Z,12.90
2018-05-09T02:07:24.143Z,12.90
2018-05-09T02:09:51.601Z,12.80
2018-05-09T02:12:19.109Z,12.80
2018-05-09T02:14:46.579Z,12.80
2018-05-09T02:17:14.035Z,12.70
2018-05-09T02:19:41.617Z,12.70
2018-05-09T02:22:09.857Z,12.60
2018-05-09T02:24:37.319Z,12.60
2018-05-09T02:27:04.788Z,12.60
2018-05-09T02:29:32.249Z,12.50
2018-05-09T02:31:59.731Z,12.50
2018-05-09T02:34:27.304Z,12.50
2018-05-09T02:36:54.761Z,12.40
2018-05-09T02:39:22.990Z,12.40
2018-05-09T02:41:50.512Z,12.30
2018-05-09T02:44:17.982Z,12.40
2018-05-09T02:46:45.445Z,12.40
2018-05-09T02:49:12.911Z,12.40
2018-05-09T02:51:40.375Z,12.40
2018-05-09T02:54:07.829Z,12.40
2018-05-09T02:56:35.318Z,12.40
2018-05-09T02:59:03.550Z,12.40
2018-05-09T03:01:31.009Z,12.40
2018-05-09T03:03:58.467Z,12.40
2018-05-09T03:06:25.974Z,12.30
2018-05-09T03:08:53.472Z,12.30
2018-05-09T03:11:20.938Z,12.30
2018-05-09T03:13:48.390Z,12.20
2018-05-09T03:16:15.868Z,12.20
2018-05-09T03:18:43.333Z,12.10
2018-05-09T03:21:10.827Z,12.10
2018-05-09T03:23:38.311Z,12.00
2018-05-09T03:26:05.781Z,11.90
2018-05-09T03:28:33.242Z,11.90
2018-05-09T03:31:00.701Z,11.80
2018-05-09T03:33:28.188Z,11.80
2018-05-09T03:35:56.409Z,11.80
2018-05-09T03:38:23.862Z,11.80
2018-05-09T03:40:51.327Z,11.80
2018-05-09T03:43:18.787Z,11.80
2018-05-09T03:45:46.274Z,11.80
2018-05-09T03:48:13.770Z,11.80
2018-05-09T03:50:41.228Z,11.80
2018-05-09T03:53:08.688Z,11.80
2018-05-09T03:55:36.156Z,11.80
2018-05-09T03:58:03.722Z,11.80
2018-05-09T04:00:32.799Z,11.80
2018-05-09T04:03:12.111Z,11.70
2018-05-09T04:05:51.592Z,11.80
2018-05-09T04:08:31.134Z,11.80
2018-05-09T04:10:58.686Z,11.80
2018-05-09T04:13:26.152Z,11.90
2018-05-09T04:15:53.633Z,11.90
2018-05-09T04:18:21.090Z,11.90
2018-05-09T04:20:48.581Z,12.00
2018-05-09T04:23:16.808Z,12.00
2018-05-09T04:25:44.266Z,12.00
2018-05-09T04:28:11.805Z,12.00
2018-05-09T04:30:39.329Z,12.00
2018-05-09T04:33:06.900Z,12.00
2018-05-09T04:35:34.466Z,12.10
2018-05-09T04:38:01.952Z,12.10
2018-05-09T04:40:30.176Z,12.20
2018-05-09T04:42:57.644Z,12.20
2018-05-09T04:45:25.190Z,12.20
2018-05-09T04:47:52.696Z,12.30
2018-05-09T04:50:20.285Z,12.30
2018-05-09T04:52:48.515Z,12.40
2018-05-09T04:55:15.979Z,12.40
2018-05-09T04:57:43.467Z,12.50
2018-05-09T05:00:10.931Z,12.50
2018-05-09T05:02:38.434Z,12.70
2018-05-09T05:05:05.871Z,12.80
2018-05-09T05:07:33.332Z,12.80
2018-05-09T05:10:00.815Z,13.00
2018-05-09T05:12:29.037Z,13.20
2018-05-09T05:14:56.495Z,13.20
2018-05-09T05:17:23.955Z,13.40
2018-05-09T05:19:51.423Z,13.50
2018-05-09T05:22:18.883Z,13.60
2018-05-09T05:24:46.351Z,13.80
2018-05-09T05:27:13.827Z,13.90
2018-05-09T05:29:41.293Z,14.10
2018-05-09T05:32:09.518Z,14.30
2018-05-09T05:34:37.767Z,14.50
2018-05-09T05:37:05.232Z,14.40
2018-05-09T05:39:32.717Z,14.50
2018-05-09T05:42:01.040Z,14.70
2018-05-09T05:44:28.439Z,14.70
2018-05-09T05:46:55.905Z,14.80
2018-05-09T05:49:23.378Z,14.80
2018-05-09T05:51:50.861Z,14.90
2018-05-09T05:54:19.081Z,15.10
2018-05-09T05:56:46.554Z,15.00
2018-05-09T05:59:14.032Z,15.10
2018-05-09T06:01:41.486Z,15.20
2018-05-09T06:04:08.970Z,15.20
2018-05-09T06:06:36.433Z,15.30
2018-05-09T06:09:03.910Z,15.30
2018-05-09T06:11:31.372Z,15.40
2018-05-09T06:13:58.834Z,15.40
2018-05-09T06:16:26.311Z,15.50
2018-05-09T06:18:54.538Z,15.60
2018-05-09T06:21:22.005Z,15.60
2018-05-09T06:23:49.485Z,15.70
2018-05-09T06:26:16.929Z,15.90
2018-05-09T06:28:44.417Z,16.00
2018-05-09T06:31:11.885Z,16.10
2018-05-09T06:33:39.351Z,16.10
2018-05-09T06:36:06.836Z,16.30
2018-05-09T06:38:35.066Z,16.70
2018-05-09T06:41:02.542Z,16.60
2018-05-09T06:43:30.007Z,16.80
2018-05-09T06:45:57.462Z,17.00
2018-05-09T06:48:24.923Z,17.10
2018-05-09T06:50:52.386Z,17.20
2018-05-09T06:53:19.878Z,17.40
2018-05-09T06:55:47.332Z,17.60
2018-05-09T06:58:14.808Z,17.80
2018-05-09T07:00:42.281Z,17.90
2018-05-09T07:03:09.748Z,17.90
2018-05-09T07:05:37.234Z,18.00
2018-05-09T07:08:04.707Z,18.20
2018-05-09T07:10:32.175Z,18.20
2018-05-09T07:12:59.640Z,18.30
2018-05-09T07:15:27.100Z,18.30
2018-05-09T07:17:54.584Z,18.30
2018-05-09T07:20:22.052Z,18.30
2018-05-09T07:22:49.502Z,18.40
2018-05-09T07:25:16.976Z,18.40
2018-05-09T07:27:44.437Z,18.40
2018-05-09T07:30:11.918Z,18.50
2018-05-09T07:32:39.610Z,18.60
2018-05-09T07:35:07.065Z,18.70
2018-05-09T07:37:34.543Z,18.70
2018-05-09T07:40:02.003Z,18.90
2018-05-09T07:42:29.474Z,18.90
2018-05-09T07:44:57.708Z,19.10
2018-05-09T07:47:25.163Z,19.10
2018-05-09T07:49:52.767Z,19.20
2018-05-09T07:52:20.236Z,19.30
2018-05-09T07:54:47.718Z,19.40
2018-05-09T07:57:15.962Z,19.60
2018-05-09T07:59:44.192Z,19.60
2018-05-09T08:02:11.656Z,19.60
2018-05-09T08:04:39.129Z,19.70
2018-05-09T08:07:06.609Z,19.80
2018-05-09T08:09:34.084Z,20.00
2018-05-09T08:12:01.541Z,20.10
2018-05-09T08:14:29.023Z,20.20
2018-05-09T08:16:56.481Z,20.30
2018-05-09T08:19:23.962Z,20.30
2018-05-09T08:21:51.427Z,20.40
2018-05-09T08:24:18.895Z,20.50
2018-05-09T08:26:46.371Z,20.70
2018-05-09T08:29:14.615Z,20.70
2018-05-09T08:31:42.085Z,20.70
2018-05-09T08:34:09.557Z,20.80
2018-05-09T08:36:37.058Z,20.90
2018-05-09T08:39:05.322Z,21.00
2018-05-09T08:41:32.786Z,21.10
2018-05-09T08:44:00.399Z,21.20
2018-05-09T08:46:27.758Z,21.30
2018-05-09T08:48:55.222Z,21.40
2018-05-09T08:51:22.689Z,21.50
2018-05-09T08:53:50.164Z,21.60
2018-05-09T08:56:17.648Z,21.70
2018-05-09T08:58:45.113Z,21.80
2018-05-09T09:01:12.577Z,21.80
2018-05-09T09:03:40.040Z,21.90
2018-05-09T09:06:07.499Z,21.90
2018-05-09T09:08:34.987Z,22.00
2018-05-09T09:11:02.448Z,22.10
2018-05-09T09:13:29.908Z,22.10
2018-05-09T09:15:57.365Z,22.10
2018-05-09T09:18:24.821Z,22.10
2018-05-09T09:20:52.411Z,22.10
2018-05-09T09:23:20.556Z,22.20
2018-05-09T09:25:48.026Z,22.20
2018-05-09T09:28:15.487Z,22.30
2018-05-09T09:30:42.953Z,22.30
2018-05-09T09:33:10.440Z,22.40
2018-05-09T09:35:37.904Z,22.50
2018-05-09T09:38:05.361Z,22.60
2018-05-09T09:40:33.226Z,22.60
2018-05-09T09:43:00.675Z,22.70
2018-05-09T09:45:28.158Z,22.70
2018-05-09T09:47:55.624Z,22.80
2018-05-09T09:50:23.085Z,22.80
2018-05-09T09:52:50.562Z,22.90
2018-05-09T09:55:18.049Z,23.00
2018-05-09T09:57:46.301Z,23.10
2018-05-09T10:00:13.842Z,23.10
2018-05-09T10:02:41.325Z,23.20
2018-05-09T10:05:08.804Z,23.20
2018-05-09T10:07:36.266Z,23.30
2018-05-09T10:10:04.512Z,23.30
2018-05-09T10:12:32.730Z,23.40
2018-05-09T10:15:00.964Z,23.50
2018-05-09T10:17:28.426Z,23.40
2018-05-09T10:19:55.890Z,23.50
2018-05-09T10:22:23.369Z,23.50
2018-05-09T10:24:50.827Z,23.60
2018-05-09T10:27:18.290Z,23.70
2018-05-09T10:29:45.767Z,23.70
2018-05-09T10:32:13.236Z,23.80
2018-05-09T10:34:40.721Z,23.80
2018-05-09T10:37:08.173Z,23.80
2018-05-09T10:39:35.643Z,23.90
2018-05-09T10:42:03.114Z,23.90
2018-05-09T10:44:31.345Z,24.10
2018-05-09T10:46:58.836Z,24.00
2018-05-09T10:49:26.312Z,24.20
2018-05-09T10:51:53.782Z,24.20
2018-05-09T10:54:22.021Z,24.20
2018-05-09T10:56:49.481Z,24.10
2018-05-09T10:59:17.727Z,24.20
2018-05-09T11:01:45.959Z,24.20
2018-05-09T11:04:14.195Z,24.20
2018-05-09T11:06:41.668Z,24.30
2018-05-09T11:09:09.134Z,24.40
2018-05-09T11:11:36.601Z,24.50
2018-05-09T11:14:04.061Z,24.60
2018-05-09T11:16:31.535Z,24.60
2018-05-09T11:18:59.006Z,24.80
2018-05-09T11:21:26.461Z,24.90
2018-05-09T11:23:53.935Z,25.00
2018-05-09T11:26:21.397Z,25.00
2018-05-09T11:28:48.943Z,25.10
2018-05-09T11:31:16.441Z,25.20
2018-05-09T11:33:44.665Z,25.30
2018-05-09T11:36:12.918Z,25.40
2018-05-09T11:38:40.388Z,25.40
2018-05-09T11:41:07.852Z,25.60
2018-05-09T11:43:35.308Z,25.50
2018-05-09T11:46:02.790Z,25.40
2018-05-09T11:48:31.058Z,24.90
2018-05-09T11:50:58.526Z,24.90
2018-05-09T11:53:25.986Z,24.60
2018-05-09T11:55:54.233Z,24.20
2018-05-09T11:58:21.704Z,24.20
2018-05-09T12:00:49.200Z,24.10
2018-05-09T12:03:16.666Z,24.00
2018-05-09T12:05:44.896Z,24.00
2018-05-09T12:08:12.367Z,23.90
2018-05-09T12:10:39.944Z,24.10
2018-05-09T12:13:07.330Z,24.10
2018-05-09T12:15:34.786Z,24.20
2018-05-09T12:18:02.260Z,24.30
2018-05-09T12:20:29.749Z,24.40
2018-05-09T12:22:57.224Z,24.40
2018-05-09T12:25:24.700Z,24.40
2018-05-09T12:27:52.170Z,24.40
2018-05-09T12:30:19.643Z,24.40
2018-05-09T12:32:47.094Z,24.40
2018-05-09T12:35:14.565Z,24.30
2018-05-09T12:37:42.052Z,24.30
2018-05-09T12:40:09.514Z,24.20
2018-05-09T12:42:37.074Z,24.10
2018-05-09T12:45:04.442Z,24.00
2018-05-09T12:47:32.678Z,23.80
2018-05-09T12:50:00.156Z,23.80
2018-05-09T12:52:27.615Z,23.60
2018-05-09T12:54:55.086Z,23.50
2018-05-09T12:57:22.552Z,23.50
2018-05-09T12:59:50.008Z,23.50
2018-05-09T13:02:17.498Z,23.60
2018-05-09T13:04:44.971Z,23.80
2018-05-09T13:07:12.456Z,24.00
2018-05-09T13:09:39.906Z,24.10
2018-05-09T13:12:07.374Z,24.10
2018-05-09T13:14:34.848Z,24.20
2018-05-09T13:17:02.319Z,24.20
2018-05-09T13:19:30.555Z,24.50
2018-05-09T13:21:58.022Z,24.40
2018-05-09T13:24:25.478Z,24.70
2018-05-09T13:26:52.978Z,24.90
2018-05-09T13:29:20.446Z,25.00
2018-05-09T13:31:48.010Z,25.10
2018-05-09T13:34:16.152Z,25.30
2018-05-09T13:36:43.624Z,25.30
2018-05-09T13:39:11.135Z,25.30
2018-05-09T13:41:38.590Z,25.40
2018-05-09T13:44:06.830Z,25.50
2018-05-09T13:46:34.336Z,25.40
2018-05-09T13:49:02.578Z,25.60
2018-05-09T13:51:30.081Z,25.60
2018-05-09T13:53:58.370Z,25.80
2018-05-09T13:56:25.799Z,25.80
2018-05-09T13:58:53.258Z,25.90
2018-05-09T14:01:20.746Z,25.80
2018-05-09T14:03:48.239Z,25.80
2018-05-09T14:06:15.701Z,25.70
2018-05-09T14:08:43.164Z,25.70
2018-05-09T14:11:10.628Z,25.70
2018-05-09T14:13:38.092Z,25.70
2018-05-09T14:16:05.564Z,25.40
2018-05-09T14:18:33.046Z,25.20
2018-05-09T14:21:00.519Z,25.00
2018-05-09T14:23:27.987Z,24.80
2018-05-09T14:25:55.453Z,24.80
2018-05-09T14:28:22.932Z,24.70
2018-05-09T14:30:50.401Z,24.80
2018-05-09T14:33:17.864Z,24.90
2018-05-09T14:35:45.324Z,25.00
2018-05-09T14:38:12.788Z,25.10
2018-05-09T14:40:40.299Z,25.20
2018-05-09T14:43:08.500Z,25.40
2018-05-09T14:45:35.974Z,25.40
2018-05-09T14:48:03.444Z,25.50
2018-05-09T14:50:30.908Z,25.60
2018-05-09T14:52:58.391Z,25.60
2018-05-09T14:55:25.862Z,25.70
2018-05-09T14:57:53.334Z,25.70
2018-05-09T15:00:21.564Z,25.70
2018-05-09T15:02:49.040Z,25.60
2018-05-09T15:05:16.534Z,25.70
2018-05-09T15:07:43.992Z,25.70
2018-05-09T15:10:11.468Z,25.80
2018-05-09T15:12:38.936Z,25.80
2018-05-09T15:15:07.181Z,25.80
2018-05-09T15:17:34.657Z,25.70
2018-05-09T15:20:02.124Z,25.80
2018-05-09T15:22:29.589Z,25.80
2018-05-09T15:24:57.055Z,25.90
2018-05-09T15:27:24.524Z,25.90
2018-05-09T15:29:52.007Z,25.80
2018-05-09T15:32:20.221Z,25.70
2018-05-09T15:34:47.697Z,25.70
2018-05-09T15:37:15.158Z,25.70
2018-05-09T15:39:42.628Z,25.60
2018-05-09T15:42:10.103Z,25.50
2018-05-09T15:44:37.557Z,25.40
2018-05-09T15:47:05.025Z,25.40
2018-05-09T15:49:32.498Z,25.30
2018-05-09T15:51:59.953Z,25.20
2018-05-09T15:54:27.434Z,25.20
2018-05-09T15:56:54.903Z,25.10
2018-05-09T15:59:22.366Z,25.10
2018-05-09T16:01:49.832Z,25.00
2018-05-09T16:04:17.303Z,24.90
2018-05-09T16:06:45.559Z,24.80
2018-05-09T16:09:13.025Z,24.80
2018-05-09T16:11:40.501Z,24.80
2018-05-09T16:14:07.973Z,24.80
2018-05-09T16:16:35.439Z,24.80
2018-05-09T16:19:02.913Z,24.70
2018-05-09T16:21:31.157Z,24.70
2018-05-09T16:23:58.632Z,24.70
2018-05-09T16:26:26.093Z,24.70
2018-05-09T16:28:53.565Z,24.70
2018-05-09T16:31:21.041Z,24.70
2018-05-09T16:33:49.275Z,24.70
2018-05-09T16:36:16.799Z,24.70
2018-05-09T16:38:44.204Z,24.60
2018-05-09T16:41:11.665Z,24.40
2018-05-09T16:43:39.923Z,24.20
2018-05-09T16:46:07.398Z,24.20
2018-05-09T16:48:34.869Z,24.20
2018-05-09T16:51:02.329Z,24.20
2018-05-09T16:53:29.803Z,24.10
2018-05-09T16:55:57.279Z,24.10
2018-05-09T16:58:24.751Z,24.20
2018-05-09T17:00:52.229Z,24.20
2018-05-09T17:03:19.697Z,24.30
2018-05-09T17:05:47.153Z,24.20
2018-05-09T17:08:14.624Z,24.40
2018-05-09T17:10:42.099Z,24.80
2018-05-09T17:13:10.325Z,25.90
2018-05-09T17:15:37.948Z,25.90
2018-05-09T17:18:06.183Z,26.80
2018-05-09T17:20:33.665Z,26.80
2018-05-09T17:23:01.177Z,27.10
2018-05-09T17:25:28.631Z,27.40
2018-05-09T17:27:56.102Z,27.60
2018-05-09T17:30:23.587Z,27.60
2018-05-09T17:32:51.075Z,27.60
2018-05-09T17:35:18.552Z,27.70
2018-05-09T17:37:46.021Z,27.80
2018-05-09T17:40:13.477Z,27.80
2018-05-09T17:42:41.029Z,27.70
2018-05-09T17:45:08.424Z,27.60
2018-05-09T17:47:36.664Z,26.80
2018-05-09T17:50:04.891Z,26.30
2018-05-09T17:52:33.120Z,25.90
2018-05-09T17:55:00.609Z,25.80
2018-05-09T17:57:28.084Z,25.40
2018-05-09T17:59:55.549Z,25.00
2018-05-09T18:02:23.012Z,24.60
2018-05-09T18:04:50.474Z,24.20
2018-05-09T18:07:17.950Z,23.80
2018-05-09T18:09:45.457Z,23.50
2018-05-09T18:12:12.929Z,23.20
2018-05-09T18:14:40.401Z,22.90
2018-05-09T18:17:07.886Z,22.70
2018-05-09T18:19:35.360Z,22.40
2018-05-09T18:22:02.862Z,22.30
2018-05-09T18:24:30.342Z,22.10
2018-05-09T18:26:57.816Z,21.90
2018-05-09T18:29:25.275Z,21.70
2018-05-09T18:31:52.748Z,21.60
2018-05-09T18:34:20.232Z,21.50
2018-05-09T18:36:47.708Z,21.30
2018-05-09T18:39:15.180Z,21.10
2018-05-09T18:41:43.415Z,20.80
2018-05-09T18:44:10.939Z,20.80
2018-05-09T18:46:38.382Z,20.60
2018-05-09T18:49:06.626Z,20.30
2018-05-09T18:51:34.868Z,20.20
2018-05-09T18:54:02.360Z,20.20
2018-05-09T18:56:29.815Z,20.00
2018-05-09T18:58:57.305Z,19.90
2018-05-09T19:01:24.788Z,19.70
2018-05-09T19:03:52.264Z,19.60
2018-05-09T19:06:19.744Z,19.40
2018-05-09T19:08:47.990Z,19.10
2018-05-09T19:11:15.513Z,19.10
2018-05-09T19:13:43.718Z,19.00
2018-05-09T19:16:11.205Z,19.00
2018-05-09T19:18:38.676Z,19.00
2018-05-09T19:21:06.138Z,18.90
2018-05-09T19:23:33.634Z,18.90
2018-05-09T19:26:01.114Z,18.80
2018-05-09T19:28:28.585Z,18.80
2018-05-09T19:30:56.048Z,18.80
2018-05-09T19:33:23.600Z,18.70
2018-05-09T19:35:51.093Z,18.70
2018-05-09T19:38:18.578Z,18.60
2018-05-09T19:40:46.059Z,18.60
2018-05-09T19:43:14.284Z,18.50
2018-05-09T19:45:41.762Z,18.40
2018-05-09T19:48:09.255Z,18.40
2018-05-09T19:50:36.738Z,18.30
2018-05-09T19:53:04.968Z,18.20
2018-05-09T19:55:32.435Z,18.20
2018-05-09T19:57:59.893Z,18.20
2018-05-09T20:00:27.392Z,18.20
2018-05-09T20:02:54.931Z,18.10
2018-05-09T20:05:23.116Z,18.00
2018-05-09T20:07:50.605Z,18.00
2018-05-09T20:10:18.075Z,18.00
2018-05-09T20:12:45.555Z,17.90
2018-05-09T20:15:13.799Z,17.80
2018-05-09T20:17:41.277Z,17.80
2018-05-09T20:20:08.740Z,17.70
2018-05-09T20:22:36.210Z,17.70
2018-05-09T20:25:03.691Z,17.70
2018-05-09T20:27:31.930Z,17.60
2018-05-09T20:29:59.397Z,17.50
2018-05-09T20:32:32.908Z,17.50
2018-05-09T20:35:00.383Z,17.40
2018-05-09T20:37:27.893Z,17.40
2018-05-09T20:39:55.362Z,17.30
2018-05-09T20:42:22.824Z,17.30
2018-05-09T20:44:50.285Z,17.30
2018-05-09T20:47:17.790Z,17.20
2018-05-09T20:49:45.281Z,17.20
2018-05-09T20:52:13.522Z,17.20
2018-05-09T20:54:41.000Z,17.10
2018-05-09T20:57:08.461Z,17.10
2018-05-09T20:59:35.927Z,17.10
2018-05-09T21:02:03.437Z,17.10
2018-05-09T21:04:30.891Z,17.10
2018-05-09T21:06:58.363Z,17.00
2018-05-09T21:09:25.870Z,17.00
2018-05-09T21:12:05.309Z,17.00
2018-05-09T21:14:32.983Z,16.90
2018-05-09T21:17:00.401Z,16.90
2018-05-09T21:19:27.876Z,16.80
2018-05-09T21:21:55.350Z,16.70
2018-05-09T21:24:22.822Z,16.70
2018-05-09T21:26:50.301Z,16.60
2018-05-09T21:29:17.782Z,16.60
2018-05-09T21:31:45.236Z,16.60
2018-05-09T21:34:12.714Z,16.60
2018-05-09T21:36:40.944Z,16.50
2018-05-09T21:39:08.442Z,16.50
2018-05-09T21:41:35.918Z,16.40
2018-05-09T21:44:03.394Z,16.30
2018-05-09T21:46:31.631Z,16.10
2018-05-09T21:48:59.110Z,16.10
2018-05-09T21:51:26.630Z,16.10
2018-05-09T21:53:54.826Z,16.00
2018-05-09T21:56:22.296Z,16.00
2018-05-09T21:58:49.762Z,16.00
2018-05-09T22:01:17.258Z,16.00
2018-05-09T22:03:44.722Z,16.00
2018-05-09T22:06:12.196Z,16.00
2018-05-09T22:08:40.436Z,16.00
2018-05-09T22:11:07.909Z,16.00
2018-05-09T22:13:35.384Z,16.00
2018-05-09T22:16:02.867Z,16.00
2018-05-09T22:18:30.335Z,15.90
2018-05-09T22:20:58.557Z,15.90
2018-05-09T22:23:26.024Z,15.80
2018-05-09T22:25:53.490Z,15.80
2018-05-09T22:28:20.976Z,15.80
2018-05-09T22:30:48.443Z,15.80
2018-05-09T22:33:15.892Z,15.80
2018-05-09T22:35:43.359Z,15.70
2018-05-09T22:38:10.824Z,15.70
2018-05-09T22:40:38.316Z,15.70
2018-05-09T22:43:05.780Z,15.70
2018-05-09T22:45:33.245Z,15.60
2018-05-09T22:48:01.537Z,15.60
2018-05-09T22:50:28.950Z,15.60
2018-05-09T22:52:56.433Z,15.60
2018-05-09T22:55:23.881Z,15.60
2018-05-09T22:57:51.349Z,15.50
2018-05-09T23:00:18.800Z,15.50
2018-05-09T23:02:46.268Z,15.40
2018-05-09T23:05:13.751Z,15.40
2018-05-09T23:07:41.216Z,15.30
2018-05-09T23:10:08.676Z,15.30
2018-05-09T23:12:36.143Z,15.20
2018-05-09T23:15:03.613Z,15.20
2018-05-09T23:17:31.093Z,15.10
2018-05-09T23:19:59.324Z,15.00
2018-05-09T23:22:26.789Z,15.10
2018-05-09T23:24:54.249Z,15.00
2018-05-09T23:27:21.713Z,15.00
2018-05-09T23:29:49.211Z,15.00
2018-05-09T23:32:16.681Z,14.90
2018-05-09T23:34:44.153Z,14.80
2018-05-09T23:37:12.373Z,14.70
2018-05-09T23:39:39.842Z,14.70
2018-05-09T23:42:07.330Z,14.70
2018-05-09T23:44:34.794Z,14.60
2018-05-09T23:47:03.033Z,14.60
2018-05-09T23:49:30.502Z,14.60
2018-05-09T23:51:57.975Z,14.60
2018-05-09T23:54:25.465Z,14.60
2018-05-09T23:56:52.932Z,14.60
2018-05-09T23:59:20.398Z,14.50
